• Join FlightAware (Why Join?)
  • Login
  • US Flag 
11:01AM EDT


 

Airport Tracker/Info


-or-


 

Live Flight TrackerFlight Track Log ✈ UAL1007 ✈ 08-Sep-2013 ✈ KIAH - SKBO / BOG

Flight Track Log - Related Links

Times and Time Zones

All times are in EDT time to prevent confusion due to time zone crossing. See the UAL1007 flight status page for this flight to view local times or setup timezone preferences in your user account.

Time Position Orientation Groundspeed Altitude Reporting Facility
EDT Latitude Longitude Course Direction KTS MPH feet Rate Location/Type
04:36PM 29.9599 -95.3409 313° West 168 193 700  Level FlightAware ADS-B
04:36PM 29.9574 -95.3386 141° Southeast 167 192 900 2,640 Climbing FlightAware ADS-B
04:36PM 29.9545 -95.3352 135° Southeast 167 192 1,100 1,980 Climbing FlightAware ADS-B
04:36PM 29.9499 -95.3286 129° Southeast 173 199 1,400 1,260 Climbing FlightAware ADS-B
04:36PM 29.9455 -95.3215 126° Southeast 182 209 1,500 1,140 Climbing FlightAware ADS-B
04:36PM 29.9391 -95.3110 125° Southeast 198 228 1,800 1,200 Climbing FlightAware ADS-B
04:36PM 29.9324 -95.2997 124° Southeast 215 247 2,000 1,500 Climbing FlightAware ADS-B
04:37PM 29.9235 -95.2843 124° Southeast 227 261 2,500 2,400 Climbing FlightAware ADS-B
04:37PM 29.9134 -95.2671 124° Southeast 227 261 3,300 2,460 Climbing FlightAware ADS-B
04:37PM 29.9035 -95.2499 124° Southeast 234 269 3,900 1,860 Climbing FlightAware ADS-B
04:38PM 29.8938 -95.2332 124° Southeast 257 296 4,300 2,160 Climbing FlightAware ADS-B
04:38PM 29.8837 -95.2159 124° Southeast 261 300 5,000 2,640 Climbing FlightAware ADS-B
04:38PM 29.8809 -95.2119 129° Southeast 262 302 5,100 2,640 Climbing FlightAware ADS-B
04:38PM 29.8762 -95.2068 137° Southeast 263 303 5,400 3,000 Climbing FlightAware ADS-B
04:38PM 29.8717 -95.2033 146° Southeast 265 305 5,600 2,220 Climbing FlightAware ADS-B
04:38PM 29.8680 -95.2012 154° Southeast 265 305 5,700 2,220 Climbing FlightAware ADS-B
04:38PM 29.8632 -95.1992 160° South 267 307 5,900 3,420 Climbing FlightAware ADS-B
04:38PM 29.8588 -95.1977 164° South 267 307 6,100 2,820 Climbing FlightAware ADS-B
04:38PM 29.8398 -95.1923 166° South 270 311 6,800 2,700 Climbing FlightAware ADS-B
04:39PM 29.8213 -95.1872 167° South 274 315 7,500 2,580 Climbing FlightAware ADS-B
04:39PM 29.8025 -95.1821 167° South 277 319 8,100 2,400 Climbing FlightAware ADS-B
04:39PM 29.7833 -95.1768 167° South 282 325 8,700 2,400 Climbing FlightAware ADS-B
04:39PM 29.7652 -95.1719 167° South 285 328 9,300 2,400 Climbing FlightAware ADS-B
04:40PM 29.7452 -95.1666 167° South 289 333 9,900 1,980 Climbing FlightAware ADS-B
04:40PM 29.7045 -95.1555 167° South 310 357 10,800 1,320 Climbing FlightAware ADS-B
04:41PM 29.6592 -95.1423 166° South 344 396 11,300 1,620 Climbing FlightAware ADS-B
04:41PM 29.6111 -95.1277 165° South 355 409 12,500 2,340 Climbing FlightAware ADS-B
04:42PM 29.5617 -95.1126 165° South 361 415 13,700 2,160 Climbing FlightAware ADS-B
04:42PM 29.5121 -95.0972 165° South 371 427 14,700 1,920 Climbing FlightAware ADS-B
04:43PM 29.4603 -95.0804 164° South 380 437 15,700 2,160 Climbing FlightAware ADS-B
04:43PM 29.4086 -95.0640 165° South 384 442 16,900 2,040 Climbing FlightAware ADS-B
04:44PM 29.3554 -95.0475 165° South 391 450 17,800 1,920 Climbing FlightAware ADS-B
04:44PM 29.3134 -95.0344 165° South 393 452 18,700 2,220 Climbing FlightAware ADS-B
04:44PM 29.3071 -95.0317 160° South 392 451 18,800 2,160 Climbing FlightAware ADS-B
04:44PM 29.2955 -95.0244 151° Southeast 390 449 19,100 2,100 Climbing FlightAware ADS-B
04:44PM 29.2868 -95.0170 143° Southeast 389 448 19,300 2,160 Climbing FlightAware ADS-B
04:45PM 29.2793 -95.0091 137° Southeast 388 447 19,500 2,640 Climbing FlightAware ADS-B
04:45PM 29.2745 -95.0032 133° Southeast 388 447 19,700 1,980 Climbing FlightAware ADS-B
04:45PM 29.2692 -94.9957 129° Southeast 389 448 19,800 1,740 Climbing FlightAware ADS-B
04:45PM 29.2351 -94.9422 126° Southeast 393 452 20,800 1,500 Climbing FlightAware ADS-B
04:46PM 29.2012 -94.8905 127° Southeast 403 464 21,400 1,140 Climbing FlightAware ADS-B
04:46PM 29.1670 -94.8391 127° Southeast 410 472 22,000 1,260 Climbing FlightAware ADS-B
04:47PM 29.1320 -94.7868 127° Southeast 415 478 22,700 1,380 Climbing FlightAware ADS-B
04:47PM 29.0890 -94.7223 127° Southeast 420 483 23,600 1,380 Climbing FlightAware ADS-B
04:48PM 29.0523 -94.6675 127° Southeast 422 486 24,300 1,140 Climbing FlightAware ADS-B
04:48PM 29.0157 -94.6126 127° Southeast 431 496 24,800 960 Climbing FlightAware ADS-B
04:49PM 28.9783 -94.5572 128° Southeast 439 505 25,300 1,140 Climbing FlightAware ADS-B
04:49PM 28.9405 -94.5008 127° Southeast 441 507 26,000 1,080 Climbing FlightAware ADS-B
04:50PM 28.8979 -94.4373 127° Southeast 447 514 26,500 960 Climbing FlightAware ADS-B
04:50PM 28.8595 -94.3798 127° Southeast 451 519 27,100 1,140 Climbing FlightAware ADS-B
04:51PM 28.8185 -94.3188 127° Southeast 452 520 27,700 1,680 Climbing FlightAware ADS-B
04:52PM 28.7785 -94.2595 128° Southeast 440 506 28,900 1,920 Climbing FlightAware ADS-B
04:52PM 28.7392 -94.2014 128° Southeast 431 496 29,800 1,320 Climbing FlightAware ADS-B
04:53PM 28.6856 -94.1215 127° Southeast 434 499 30,600 960 Climbing FlightAware ADS-B
04:53PM 28.6768 -94.1037 119° Southeast 437 503 30,700 780 Climbing FlightAware ADS-B
04:54PM 28.6455 -94.0271 115° Southeast 439 505 31,200 840 Climbing FlightAware ADS-B
04:54PM 28.6182 -93.9585 114° Southeast 444 511 31,700 900 Climbing FlightAware ADS-B
04:55PM 28.5868 -93.8804 115° Southeast 444 511 32,300 780 Climbing FlightAware ADS-B
04:55PM 28.5566 -93.8060 115° Southeast 447 514 32,700 420 Climbing FlightAware ADS-B
04:56PM 28.5302 -93.7401 114° Southeast 457 526 32,800 180 Climbing FlightAware ADS-B
04:56PM 28.5091 -93.6975 119° Southeast 460 529 32,900 480 Climbing FlightAware ADS-B
04:57PM 28.4817 -93.6484 122° Southeast 462 532 33,200 720 Climbing FlightAware ADS-B
04:57PM 28.4431 -93.5878 126° Southeast 461 531 33,600 840 Climbing FlightAware ADS-B
04:58PM 28.3998 -93.5295 130° Southeast 457 526 34,100 900 Climbing FlightAware ADS-B
04:58PM 28.3532 -93.4692 131° Southeast 454 522 34,600 600 Climbing FlightAware ADS-B
04:59PM 28.2864 -93.3824 131° Southeast 453 521 35,000 180 Climbing FlightAware ADS-B
05:00PM 28.2113 -93.2841 131° Southeast 454 522 35,000  Level FlightAware ADS-B
05:01PM 28.1131 -93.1556 131° Southeast 453 521 35,000 -60 Level Houston Center
05:02PM 28.0311 -93.0469 131° Southeast 456 525 34,900  Descending Houston Center
05:03PM 27.9492 -92.9406 131° Southeast 451 519 35,000  Climbing Houston Center
05:04PM 27.8672 -92.8342 131° Southeast 450 518 35,000  Level Houston Center
05:05PM 27.7661 -92.7075 132° Southeast 453 521 35,000  Level Houston Center
05:06PM 27.6833 -92.5994 131° Southeast 454 522 35,000 -60 Level Houston Center
05:07PM 27.5997 -92.4925 131° Southeast 455 524 34,900 -60 Descending Houston Center
05:08PM 27.5175 -92.3839 130° Southeast 457 526 34,900  Level Houston Center
05:09PM 27.4336 -92.2781 132° Southeast 454 522 35,000  Climbing Houston Center
05:11PM 27.3325 -92.1506 132° Southeast 454 522 35,000 -60 Level Houston Center
05:12PM 27.2492 -92.0433 131° Southeast 455 524 34,900  Descending Houston Center
05:13PM 27.1628 -91.9389 133° Southeast 457 526 35,000  Climbing Houston Center
05:15PM 26.9823 -91.7923 144° Southeast  Level FlightAware Approximate
05:22PM 26.3275 -91.2658 145° Southeast  Level FlightAware Approximate
05:23PM 26.2330 -91.1923 145° Southeast  Level FlightAware Approximate
05:24PM 26.1384 -91.1189 145° Southeast  Level FlightAware Approximate
05:25PM 26.0439 -91.0457 145° Southeast  Level FlightAware Approximate
05:26PM 25.9493 -90.9726 145° Southeast  Level FlightAware Approximate
05:27PM 25.8546 -90.8996 145° Southeast  Level FlightAware Approximate
05:28PM 25.7599 -90.8267 145° Southeast  Level FlightAware Approximate
05:29PM 25.6652 -90.7539 145° Southeast  Level FlightAware Approximate
05:30PM 25.5705 -90.6812 145° Southeast  Level FlightAware Approximate
05:31PM 25.4757 -90.6087 145° Southeast  Level FlightAware Approximate
05:32PM 25.3808 -90.5362 145° Southeast  Level FlightAware Approximate
05:33PM 25.2865 -90.4632 145° Southeast  Level FlightAware Approximate
05:34PM 25.1925 -90.3894 145° Southeast  Level FlightAware Approximate
05:35PM 25.0986 -90.3158 145° Southeast  Level FlightAware Approximate
05:36PM 25.0046 -90.2423 145° Southeast  Level FlightAware Approximate
05:37PM 24.9105 -90.1689 145° Southeast  Level FlightAware Approximate
05:38PM 24.8165 -90.0956 145° Southeast  Level FlightAware Approximate
05:39PM 24.7224 -90.0224 145° Southeast  Level FlightAware Approximate
05:40PM 24.6282 -89.9493 145° Southeast  Level FlightAware Approximate
05:40PM 24.3160 -89.7120 145° Southeast 469 540 35,000  Level FlightAware
05:40PM 24.2690 -89.6760 145° Southeast 469 540 35,000  Level FlightAware
05:41PM 24.2050 -89.6290 146° Southeast 469 540 35,000  Level FlightAware
05:42PM 24.1040 -89.5520 145° Southeast 470 541 35,000  Level FlightAware
05:42PM 24.0450 -89.5080 146° Southeast 470 541 35,000  Level FlightAware
05:43PM 23.9780 -89.4570 145° Southeast 471 542 35,000  Level FlightAware
05:44PM 23.8740 -89.3790 146° Southeast 472 543 35,000  Level FlightAware
05:45PM 23.8130 -89.3330 145° Southeast 473 544 35,000  Level FlightAware
05:45PM 23.7390 -89.2780 146° Southeast 475 547 35,000  Level FlightAware
05:46PM 23.6710 -89.2260 145° Southeast 475 547 35,000  Level FlightAware
05:46PM 23.6190 -89.1880 146° Southeast 476 548 35,000  Level FlightAware
05:47PM 23.5520 -89.1380 146° Southeast 476 548 35,000  Level FlightAware
05:48PM 23.4880 -89.0900 145° Southeast 475 547 35,000  Level FlightAware
05:48PM 23.4270 -89.0450 146° Southeast 474 545 35,000  Level FlightAware
05:49PM 23.3660 -89.0010 146° Southeast 470 541 35,000  Level FlightAware
05:49PM 23.2900 -88.9470 147° Southeast 469 540 35,000  Level FlightAware
05:50PM 23.2320 -88.9040 146° Southeast 467 537 35,000  Level FlightAware
05:50PM 23.1650 -88.8560 147° Southeast 465 535 35,000  Level FlightAware
05:51PM 23.0960 -88.8060 146° Southeast 462 532 35,000  Level FlightAware
05:52PM 23.0340 -88.7610 146° Southeast 459 528 35,000  Level FlightAware
05:52PM 22.9790 -88.7210 146° Southeast 457 526 35,000  Level FlightAware
05:53PM 22.9070 -88.6690 146° Southeast 455 524 35,000  Level FlightAware
05:53PM 22.8550 -88.6320 147° Southeast 455 524 35,000  Level FlightAware
05:54PM 22.7980 -88.5910 146° Southeast 453 521 35,000  Level FlightAware
05:55PM 22.7220 -88.5360 146° Southeast 452 520 35,000  Level FlightAware
05:55PM 22.6750 -88.5030 147° Southeast 452 520 35,000  Level FlightAware
05:56PM 22.5890 -88.4410 146° Southeast 455 524 35,000  Level FlightAware
05:57PM 22.5290 -88.3980 146° Southeast 460 529 35,000  Level FlightAware
05:57PM 22.4740 -88.3590 147° Southeast 459 528 35,000  Level FlightAware
05:58PM 22.4080 -88.3120 147° Southeast 459 528 35,000  Level FlightAware
05:58PM 22.3530 -88.2730 147° Southeast 458 527 35,000  Level FlightAware
05:59PM 22.2790 -88.2200 146° Southeast 458 527 35,000  Level FlightAware
05:59PM 22.2200 -88.1780 147° Southeast 457 526 35,000  Level FlightAware
06:00PM 22.1560 -88.1320 146° Southeast 460 529 35,000  Level FlightAware
06:00PM 22.1140 -88.1030 147° Southeast 462 532 35,000  Level FlightAware
06:01PM 22.0470 -88.0550 146° Southeast 462 532 35,000  Level FlightAware
06:02PM 21.9860 -88.0120 147° Southeast 462 532 35,000  Level FlightAware
06:02PM 21.9030 -87.9530 147° Southeast 464 534 35,000  Level FlightAware
06:03PM 21.8390 -87.9080 147° Southeast 467 537 35,000  Level FlightAware
06:03PM 21.7740 -87.8630 147° Southeast 466 536 35,000 360 Level FlightAware
06:04PM 21.7170 -87.8220 146° Southeast 473 544 35,500 780 Climbing FlightAware
06:05PM 21.6520 -87.7760 147° Southeast 471 542 36,000 900 Climbing FlightAware
06:05PM 21.5880 -87.7310 147° Southeast 467 537 36,600 780 Climbing FlightAware
06:06PM 21.5250 -87.6870 147° Southeast 464 534 37,000 300 Climbing FlightAware
06:07PM 21.4540 -87.6370 147° Southeast 464 534 37,000  Level FlightAware
06:07PM 21.3690 -87.5770 147° Southeast 461 531 37,000  Level FlightAware
06:08PM 21.3050 -87.5320 147° Southeast 461 531 37,000  Level FlightAware
06:08PM 21.2410 -87.4880 147° Southeast 459 528 37,000  Level FlightAware
06:09PM 21.1760 -87.4420 147° Southeast 459 528 37,000  Level FlightAware
06:09PM 21.1110 -87.3970 147° Southeast 461 531 37,000  Level FlightAware
06:10PM 21.0540 -87.3570 147° Southeast 465 535 37,000  Level FlightAware
06:10PM 21.0060 -87.3240 147° Southeast 468 539 37,000  Level FlightAware
06:11PM 20.9200 -87.2640 147° Southeast 465 535 37,000  Level FlightAware
06:12PM 20.8550 -87.2190 147° Southeast 464 534 37,000  Level FlightAware
06:12PM 20.7910 -87.1740 147° Southeast 466 536 37,000  Level FlightAware
06:13PM 20.7310 -87.1330 147° Southeast 468 539 37,000  Level FlightAware
06:14PM 20.6670 -87.0880 147° Southeast 469 540 37,000  Level FlightAware
06:14PM 20.6040 -87.0450 147° Southeast 472 543 37,000  Level FlightAware
06:15PM 20.5390 -87.0000 147° Southeast 472 543 37,000  Level FlightAware
06:15PM 20.4730 -86.9540 147° Southeast 471 542 37,000  Level FlightAware
06:16PM 20.4070 -86.9080 147° Southeast 472 543 37,000  Level FlightAware
06:17PM 20.3390 -86.8620 148° Southeast 472 543 37,000  Level FlightAware
06:17PM 20.2820 -86.8220 147° Southeast 471 542 37,000  Level FlightAware
06:18PM 20.2150 -86.7760 147° Southeast 469 540 37,000  Level FlightAware
06:18PM 20.1510 -86.7320 147° Southeast 467 537 37,000  Level FlightAware
06:19PM 20.0910 -86.6910 147° Southeast 467 537 37,000  Level FlightAware
06:19PM 20.0260 -86.6460 147° Southeast 467 537 37,000  Level FlightAware
06:20PM 19.9610 -86.6020 148° Southeast 467 537 37,000  Level FlightAware
06:21PM 19.9020 -86.5610 147° Southeast 466 536 37,000  Level FlightAware
06:21PM 19.8370 -86.5170 148° Southeast 467 537 37,000  Level FlightAware
06:22PM 19.7710 -86.4720 147° Southeast 466 536 37,000  Level FlightAware
06:22PM 19.7070 -86.4280 147° Southeast 464 534 37,000  Level FlightAware
06:23PM 19.6410 -86.3830 147° Southeast 463 533 37,000  Level FlightAware
06:24PM 19.5820 -86.3450 149° Southeast 463 533 37,000  Level FlightAware
06:24PM 19.5150 -86.3050 151° Southeast 463 533 37,000  Level FlightAware
06:25PM 19.4520 -86.2660 150° Southeast 463 533 37,000  Level FlightAware
06:25PM 19.3860 -86.2260 150° Southeast 462 532 37,000  Level FlightAware
06:26PM 19.3200 -86.1860 150° Southeast 461 531 37,000  Level FlightAware
06:26PM 19.2600 -86.1490 150° Southeast 461 531 37,000  Level FlightAware
06:27PM 19.1940 -86.1090 150° Southeast 460 529 37,000  Level FlightAware
06:28PM 19.1110 -86.0590 150° Southeast 460 529 37,000  Level FlightAware
06:28PM 19.0390 -86.0160 151° Southeast 461 531 37,000  Level FlightAware
06:29PM 18.9370 -85.9540 150° Southeast 464 534 37,000  Level FlightAware
06:30PM 18.8680 -85.9120 150° Southeast 464 534 37,000  Level FlightAware
06:31PM 18.8090 -85.8760 150° Southeast 463 533 37,000  Level FlightAware
06:31PM 18.7520 -85.8420 151° Southeast 463 533 37,000  Level FlightAware
06:32PM 18.6940 -85.8060 150° Southeast 463 533 37,000  Level FlightAware
06:32PM 18.6370 -85.7720 151° Southeast 463 533 37,000  Level FlightAware
06:33PM 18.5810 -85.7370 149° Southeast 463 533 37,000  Level FlightAware
06:34PM 18.5240 -85.7030 151° Southeast 463 533 37,000  Level FlightAware
06:34PM 18.4640 -85.6660 150° Southeast 463 533 37,000  Level FlightAware
06:35PM 18.4060 -85.6310 150° Southeast 463 533 37,000  Level FlightAware
06:35PM 18.3490 -85.5960 150° Southeast 463 533 37,000  Level FlightAware
06:36PM 18.2920 -85.5620 150° Southeast 463 533 37,000  Level FlightAware
06:37PM 18.2350 -85.5270 150° Southeast 463 533 37,000  Level FlightAware
06:37PM 18.1780 -85.4930 150° Southeast 463 533 37,000  Level FlightAware
06:38PM 18.1200 -85.4570 149° Southeast 463 533 37,000  Level FlightAware
06:38PM 18.0630 -85.4230 150° Southeast 463 533 37,000  Level FlightAware
06:39PM 18.0070 -85.3880 149° Southeast 463 533 37,000  Level FlightAware
06:40PM 17.9500 -85.3540 150° Southeast 463 533 37,000  Level FlightAware
06:42PM 17.8106 -85.1622 127° Southeast  Level FlightAware Approximate
06:43PM 17.7377 -85.0622 127° Southeast  Level FlightAware Approximate
06:44PM 17.6467 -84.9803 147° Southeast  Level Estimated
06:45PM 17.5456 -84.9128 148° Southeast  Level FlightAware Approximate
06:46PM 17.4445 -84.8453 148° Southeast  Level FlightAware Approximate
06:47PM 17.3433 -84.7780 148° Southeast  Level FlightAware Approximate
06:48PM 17.2421 -84.7107 148° Southeast  Level FlightAware Approximate
06:49PM 17.1409 -84.6434 148° Southeast  Level FlightAware Approximate
06:50PM 17.0397 -84.5763 148° Southeast  Level FlightAware Approximate
06:51PM 16.9385 -84.5092 148° Southeast  Level FlightAware Approximate
06:52PM 16.8372 -84.4422 148° Southeast  Level FlightAware Approximate
06:53PM 16.7359 -84.3752 148° Southeast  Level FlightAware Approximate
06:54PM 16.6346 -84.3084 148° Southeast  Level FlightAware Approximate
06:55PM 16.5333 -84.2416 148° Southeast  Level FlightAware Approximate
06:56PM 16.4319 -84.1748 148° Southeast  Level FlightAware Approximate
06:57PM 16.3305 -84.1082 148° Southeast  Level FlightAware Approximate
06:58PM 16.2292 -84.0416 148° Southeast  Level FlightAware Approximate
06:59PM 16.1277 -83.9751 148° Southeast  Level FlightAware Approximate
07:00PM 16.0263 -83.9086 148° Southeast  Level FlightAware Approximate
07:01PM 15.9248 -83.8422 148° Southeast  Level FlightAware Approximate
07:02PM 15.8233 -83.7759 148° Southeast  Level FlightAware Approximate
07:03PM 15.7219 -83.7097 148° Southeast  Level FlightAware Approximate
07:04PM 15.6203 -83.6435 148° Southeast  Level FlightAware Approximate
07:05PM 15.5188 -83.5774 148° Southeast  Level FlightAware Approximate
07:06PM 15.4172 -83.5113 148° Southeast  Level FlightAware Approximate
07:07PM 15.3156 -83.4453 148° Southeast  Level FlightAware Approximate
07:08PM 15.2141 -83.3794 148° Southeast  Level FlightAware Approximate
07:09PM 15.1124 -83.3135 148° Southeast  Level FlightAware Approximate
07:10PM 15.0108 -83.2477 148° Southeast  Level FlightAware Approximate
07:11PM 14.9092 -83.1820 148° Southeast  Level FlightAware Approximate
07:12PM 14.8075 -83.1163 148° Southeast  Level FlightAware Approximate
07:13PM 14.7058 -83.0507 148° Southeast  Level FlightAware Approximate
07:14PM 14.6041 -82.9852 148° Southeast  Level FlightAware Approximate
07:15PM 14.5024 -82.9197 148° Southeast  Level FlightAware Approximate
07:16PM 14.4006 -82.8542 148° Southeast  Level FlightAware Approximate
07:17PM 14.2989 -82.7889 148° Southeast  Level FlightAware Approximate
07:18PM 14.1971 -82.7236 148° Southeast  Level FlightAware Approximate
07:19PM 14.0953 -82.6583 148° Southeast  Level FlightAware Approximate
07:20PM 13.9935 -82.5931 148° Southeast  Level FlightAware Approximate
07:21PM 13.9053 -82.5094 148° Southeast  Level Estimated
07:22PM 13.8024 -82.4461 149° Southeast  Level FlightAware Approximate
07:23PM 13.6996 -82.3828 149° Southeast  Level FlightAware Approximate
07:24PM 13.5967 -82.3195 149° Southeast  Level FlightAware Approximate
07:25PM 13.4937 -82.2563 149° Southeast  Level FlightAware Approximate
07:26PM 13.3908 -82.1932 149° Southeast  Level FlightAware Approximate
07:27PM 13.2879 -82.1301 149° Southeast  Level FlightAware Approximate
07:28PM 13.1849 -82.0670 149° Southeast  Level FlightAware Approximate
07:29PM 13.0819 -82.0041 149° Southeast  Level FlightAware Approximate
07:30PM 12.9789 -81.9411 149° Southeast  Level FlightAware Approximate
07:31PM 12.8759 -81.8783 149° Southeast  Level FlightAware Approximate
07:32PM 12.7729 -81.8154 149° Southeast  Level FlightAware Approximate
07:33PM 12.6699 -81.7527 149° Southeast  Level FlightAware Approximate
07:34PM 12.5836 -81.6674 140° Southeast  Level Estimated
07:35PM 12.4916 -81.5887 140° Southeast  Level FlightAware Approximate
07:36PM 12.3995 -81.5101 140° Southeast  Level FlightAware Approximate
07:37PM 12.3075 -81.4315 140° Southeast  Level FlightAware Approximate
07:38PM 12.2154 -81.3530 140° Southeast  Level FlightAware Approximate
07:39PM 12.1233 -81.2745 140° Southeast  Level FlightAware Approximate
07:40PM 12.0311 -81.1961 140° Southeast  Level FlightAware Approximate
07:41PM 11.9390 -81.1178 140° Southeast  Level FlightAware Approximate
07:42PM 11.8468 -81.0395 140° Southeast  Level FlightAware Approximate
07:43PM 11.7546 -80.9612 140° Southeast  Level FlightAware Approximate
07:44PM 11.6624 -80.8830 140° Southeast  Level FlightAware Approximate
07:44PM 11.2500 -80.5520 140° Southeast 429 494 37,000  Level FlightAware
07:44PM 11.2020 -80.5090 139° Southeast 429 494 37,000  Level FlightAware
07:45PM 11.1310 -80.4500 141° Southeast 429 494 37,000  Level FlightAware
07:45PM 11.0850 -80.4110 140° Southeast 430 495 37,000  Level FlightAware
07:46PM 11.0320 -80.3640 139° Southeast 430 495 37,000  Level FlightAware
07:47PM 10.9760 -80.3170 141° Southeast 431 496 37,000  Level FlightAware
07:47PM 10.9150 -80.2650 140° Southeast 431 496 37,000  Level FlightAware
07:48PM 10.8680 -80.2240 139° Southeast 432 497 37,000  Level FlightAware
07:48PM 10.8150 -80.1790 140° Southeast 432 497 37,000  Level FlightAware
07:49PM 10.7640 -80.1350 140° Southeast 439 505 37,000  Level FlightAware
07:49PM 10.7070 -80.0860 140° Southeast 439 505 37,000  Level FlightAware
07:50PM 10.6500 -80.0380 140° Southeast 439 505 37,000  Level FlightAware
07:51PM 10.5890 -79.9850 139° Southeast 439 505 37,000  Level FlightAware
07:51PM 10.5400 -79.9440 141° Southeast 439 505 37,000  Level FlightAware
07:52PM 10.4860 -79.8980 140° Southeast 438 504 37,000  Level FlightAware
07:52PM 10.4320 -79.8520 140° Southeast 431 496 37,000  Level FlightAware
07:53PM 10.3760 -79.8030 139° Southeast 437 503 37,000  Level FlightAware
07:54PM 10.3220 -79.7580 141° Southeast 430 495 37,000  Level FlightAware
07:54PM 10.2620 -79.7060 140° Southeast 430 495 37,000  Level FlightAware
07:55PM 10.2150 -79.6640 139° Southeast 430 495 37,000  Level FlightAware
07:56PM 10.1690 -79.6230 139° Southeast 430 495 37,000  Level FlightAware
07:56PM 10.1230 -79.5830 139° Southeast 430 495 37,000  Level FlightAware
07:57PM 10.0760 -79.5410 139° Southeast 430 495 37,000  Level FlightAware
07:57PM 10.0310 -79.5020 140° Southeast 430 495 37,000  Level FlightAware
07:58PM 9.9850 -79.4610 139° Southeast 430 495 37,000  Level FlightAware
07:59PM 9.9380 -79.4190 139° Southeast 430 495 37,000  Level FlightAware
07:59PM 9.8170 -79.3280 143° Southeast 425 489 37,000  Level FlightAware
08:00PM 9.7630 -79.2830 141° Southeast 426 490 37,000  Level FlightAware
08:02PM 9.5898 -79.1362 140° Southeast  Level FlightAware Approximate
08:03PM 9.4977 -79.0583 140° Southeast  Level FlightAware Approximate
08:04PM 9.4057 -78.9805 140° Southeast  Level FlightAware Approximate
08:05PM 9.3137 -78.9027 140° Southeast  Level FlightAware Approximate
08:06PM 9.2216 -78.8249 140° Southeast  Level FlightAware Approximate
08:07PM 9.1295 -78.7472 140° Southeast  Level FlightAware Approximate
08:08PM 9.0374 -78.6695 140° Southeast  Level FlightAware Approximate
08:09PM 8.9453 -78.5919 140° Southeast  Level FlightAware Approximate
08:10PM 8.8532 -78.5143 140° Southeast  Level FlightAware Approximate
08:11PM 8.7610 -78.4367 140° Southeast  Level FlightAware Approximate
08:12PM 8.6688 -78.3592 140° Southeast  Level FlightAware Approximate
08:13PM 8.5767 -78.2817 140° Southeast  Level FlightAware Approximate
08:14PM 8.4845 -78.2042 140° Southeast  Level FlightAware Approximate
08:15PM 8.3932 -78.1258 133° Southeast  Level FlightAware Approximate
08:16PM 8.3121 -78.0366 133° Southeast  Level FlightAware Approximate
08:17PM 8.2310 -77.9474 133° Southeast  Level FlightAware Approximate
08:18PM 8.1498 -77.8583 133° Southeast  Level FlightAware Approximate
08:19PM 8.0687 -77.7692 133° Southeast  Level FlightAware Approximate
08:20PM 7.9875 -77.6801 133° Southeast  Level FlightAware Approximate
08:20PM 7.9320 -77.6400 133° Southeast 435 501 37,000  Level FlightAware
08:21PM 7.9063 -77.5911 133° Southeast  Level FlightAware Approximate
08:21PM 7.8720 -77.6040 149° Southeast 432 497 37,000  Level FlightAware
08:22PM 7.8020 -77.5610 149° Southeast 431 496 37,000  Level FlightAware
08:22PM 7.7350 -77.5210 149° Southeast 431 496 37,000  Level FlightAware
08:23PM 7.6760 -77.4830 147° Southeast 427 491 37,000  Level FlightAware
08:23PM 7.6170 -77.4200 133° Southeast 427 491 37,000  Level FlightAware
08:24PM 7.5680 -77.3670 133° Southeast 427 491 37,000  Level FlightAware
08:25PM 7.5210 -77.3170 133° Southeast 426 490 37,000  Level FlightAware
08:25PM 7.4750 -77.2640 131° Southeast 426 490 37,000  Level FlightAware
08:26PM 7.4290 -77.2120 132° Southeast 427 491 37,000  Level FlightAware
08:26PM 7.3850 -77.1600 130° Southeast 428 493 37,000  Level FlightAware
08:27PM 7.3400 -77.1070 131° Southeast 431 496 37,000  Level FlightAware
08:28PM 7.2960 -77.0510 128° Southeast 434 499 37,000  Level FlightAware
08:28PM 7.2540 -77.0000 130° Southeast 435 501 37,000  Level FlightAware
08:29PM 7.2070 -76.9400 128° Southeast 433 498 37,000  Level FlightAware
08:29PM 7.1630 -76.8840 128° Southeast 434 499 37,000  Level FlightAware
08:30PM 7.1200 -76.8300 129° Southeast 434 499 37,000  Level FlightAware
08:30PM 7.0760 -76.7730 128° Southeast 432 497 37,000  Level FlightAware
08:31PM 7.0330 -76.7190 129° Southeast 431 496 37,000  Level FlightAware
08:32PM 6.9900 -76.6630 128° Southeast 429 494 37,000  Level FlightAware
08:32PM 6.9470 -76.6080 128° Southeast 429 494 37,000  Level FlightAware
08:33PM 6.9090 -76.5610 129° Southeast 428 493 37,000  Level FlightAware
08:33PM 6.8610 -76.5000 128° Southeast 427 491 37,000  Level FlightAware
08:34PM 6.8180 -76.4470 129° Southeast 428 493 37,000  Level FlightAware
08:35PM 6.7730 -76.3930 130° Southeast 425 489 37,000  Level FlightAware
08:35PM 6.7170 -76.3230 129° Southeast 424 488 37,000  Level FlightAware
08:36PM 6.6800 -76.2770 129° Southeast 424 488 37,000  Level FlightAware
08:36PM 6.6370 -76.2250 130° Southeast 424 488 37,000  Level FlightAware
08:37PM 6.5880 -76.1640 129° Southeast 424 488 37,000  Level FlightAware
08:38PM 6.5510 -76.1200 130° Southeast 424 488 37,000  Level FlightAware
08:38PM 6.5080 -76.0650 128° Southeast 424 488 37,000  Level FlightAware
08:39PM 6.4590 -76.0050 129° Southeast 423 487 37,000  Level FlightAware
08:39PM 6.4160 -75.9500 128° Southeast 424 488 37,000  Level FlightAware
08:40PM 6.3800 -75.9050 129° Southeast 424 488 37,000  Level FlightAware
08:41PM 6.3320 -75.8450 129° Southeast 424 488 37,000  Level FlightAware
08:41PM 6.2900 -75.7930 129° Southeast 424 488 37,000  Level FlightAware
08:42PM 6.2450 -75.7370 129° Southeast 422 486 37,000  Level FlightAware
08:42PM 6.2070 -75.6890 129° Southeast 421 484 37,000  Level FlightAware
08:43PM 6.1600 -75.6310 129° Southeast 419 482 37,000  Level FlightAware
08:43PM 6.1450 -75.6040 119° Southeast 415 478 37,000  Level FlightAware
08:44PM 6.1310 -75.5440 103° East 413 475 37,000  Level FlightAware
08:44PM 6.1250 -75.4860 96° East 414 476 37,000  Level FlightAware
08:45PM 6.1160 -75.3820 95° East 415 478 37,000  Level FlightAware
08:46PM 6.1110 -75.3220 95° East 415 478 37,000  Level FlightAware
08:46PM 6.1050 -75.2630 96° East 415 478 37,000  Level FlightAware
08:47PM 6.0960 -75.1660 95° East 844 971 37,000 -660 Level FlightAware
08:47PM 6.0720 -75.1100 113° Southeast 430 495 36,300 -600 Descending FlightAware
08:48PM 6.0370 -75.0580 124° Southeast 430 495 36,300  Level FlightAware
08:49PM 6.0030 -75.0070 124° Southeast 430 495 36,300  Level FlightAware
08:49PM 5.9690 -74.9560 124° Southeast 430 495 36,300  Level FlightAware
08:50PM 5.9340 -74.9040 124° Southeast 430 495 36,300  Level FlightAware
08:51PM 5.9000 -74.8530 124° Southeast 430 495 36,300  Level FlightAware
08:51PM 5.8660 -74.8030 124° Southeast 430 495 36,300  Level FlightAware
08:52PM 5.8320 -74.7520 124° Southeast 430 495 36,300 -6,300 Level FlightAware
08:52PM 5.5150 -74.9810 216° Southwest 394 453 28,900 -7,440 Descending FlightAware
08:53PM 5.4560 -74.9700 169° South 388 447 27,900 -1,800 Descending FlightAware
08:53PM 5.3950 -74.9590 170° South 384 442 26,900 -1,500 Descending FlightAware
08:54PM 5.3290 -74.9470 170° South 370 426 26,100 -780 Descending FlightAware
08:55PM 5.2710 -74.9340 167° South 349 402 26,000 -180 Descending FlightAware
08:55PM 5.2540 -74.9240 150° Southeast 345 397 26,000 -540 Level FlightAware
08:55PM 5.2170 -74.8840 133° Southeast 343 395 25,600 -1,680 Descending FlightAware
08:56PM 5.1850 -74.8350 123° Southeast 345 397 24,100 -1,620 Descending FlightAware
08:57PM 5.1550 -74.7890 123° Southeast 319 367 23,700 -1,200 Descending FlightAware
08:57PM 5.1260 -74.7440 123° Southeast 315 362 22,700 -1,680 Descending FlightAware
08:58PM 5.1010 -74.7060 123° Southeast 310 357 21,800 -1,620 Descending FlightAware
08:58PM 5.0730 -74.6630 123° Southeast 301 346 20,900 -1,500 Descending FlightAware
08:59PM 5.0450 -74.6220 124° Southeast 292 336 20,000 -1,440 Descending FlightAware
09:00PM 5.0210 -74.5860 124° Southeast 282 325 19,300 -1,500 Descending FlightAware
09:00PM 4.9950 -74.5470 124° Southeast 279 321 18,300 -1,620 Descending FlightAware
09:01PM 4.9690 -74.5080 124° Southeast 271 312 17,400 -1,620 Descending FlightAware
09:01PM 4.9450 -74.4710 123° Southeast 270 311 16,400 -1,800 Descending FlightAware
09:02PM 4.9250 -74.4410 124° Southeast 273 314 15,500 -1,740 Descending FlightAware
09:02PM 4.8940 -74.4040 130° Southeast 270 311 14,500 -1,380 Descending FlightAware
09:03PM 4.8630 -74.3720 134° Southeast 255 293 13,800 -1,080 Descending FlightAware
09:04PM 4.8410 -74.3410 125° Southeast 228 262 13,300 -1,140 Descending FlightAware
09:04PM 4.8190 -74.3120 127° Southeast 206 237 12,500 -1,380 Descending FlightAware
09:05PM 4.7990 -74.2860 128° Southeast 190 219 11,700 -1,440 Descending FlightAware
09:05PM 4.7840 -74.2670 128° Southeast 177 204 11,000 -1,080 Descending FlightAware
09:06PM 4.7640 -74.2390 126° Southeast 179 206 10,400 -480 Descending FlightAware
09:07PM 4.7490 -74.2190 127° Southeast 179 206 10,400  Level FlightAware
09:07PM 4.7330 -74.1990 129° Southeast 179 206 10,400 -1,680 Level FlightAware
09:08PM 4.7100 -74.1680 127° Southeast 171 197 8,300 -1,980 Descending FlightAware
09:08PM 4.7010 -74.1550 125° Southeast 171 197 8,300  Level FlightAware
09:08PM 4.6960 -74.1480 126° Southeast 171 197 8,300  Level FlightAware
09:09PM 4.6860 -74.1350 128° Southeast 171 197 8,300  Level FlightAware
09:09PM 4.6760 -74.1210 126° Southeast 171 197 8,300  Level FlightAware